createdAt,value
2022-08-04T00:04:03.938Z,1.10
2022-08-04T00:09:24.167Z,1.20
2022-08-04T00:14:34.099Z,1.20
2022-08-04T00:19:44.744Z,1.00
2022-08-04T00:24:48.069Z,1.27
2022-08-04T00:29:53.134Z,1.02
2022-08-04T00:34:58.828Z,1.02
2022-08-04T00:40:03.374Z,1.10
2022-08-04T00:45:24.308Z,1.70
2022-08-04T00:50:30.057Z,1.40
2022-08-04T00:55:57.719Z,1.40
2022-08-04T01:01:14.272Z,1.13
2022-08-04T01:06:35.226Z,1.80
2022-08-04T01:11:56.420Z,2.00
2022-08-04T01:17:25.373Z,1.85
2022-08-04T01:22:34.378Z,2.28
2022-08-04T01:28:15.521Z,2.20
2022-08-04T01:33:24.260Z,1.92
2022-08-04T01:38:34.676Z,2.30
2022-08-04T01:43:43.873Z,2.53
2022-08-04T01:48:53.880Z,2.15
2022-08-04T01:53:57.399Z,2.40
2022-08-04T01:59:02.916Z,2.53
2022-08-04T02:04:18.861Z,2.35
2022-08-04T02:10:10.118Z,2.40
2022-08-04T02:16:09.685Z,2.67
2022-08-04T02:21:16.829Z,2.38
2022-08-04T02:26:24.313Z,2.38
2022-08-04T02:31:51.352Z,2.30
2022-08-04T02:36:56.244Z,2.40
2022-08-04T02:42:00.166Z,2.30
2022-08-04T02:47:04.622Z,2.38
2022-08-04T02:52:10.555Z,2.50
2022-08-04T02:57:17.590Z,2.45
2022-08-04T03:02:35.140Z,3.15
2022-08-04T03:08:15.456Z,3.78
2022-08-04T03:13:48.556Z,2.60
2022-08-04T03:19:38.862Z,2.58
2022-08-04T03:25:35.288Z,2.90
2022-08-04T03:31:47.306Z,3.58
2022-08-04T03:37:25.909Z,3.20
2022-08-04T03:43:58.977Z,3.08
2022-08-04T03:48:59.259Z,2.50
2022-08-04T03:54:32.087Z,2.53
2022-08-04T03:59:55.917Z,2.65
2022-08-04T04:05:16.420Z,3.00
2022-08-04T04:10:38.245Z,2.40
2022-08-04T04:16:08.977Z,2.72
2022-08-04T04:21:46.508Z,2.50
2022-08-04T04:27:19.690Z,2.53
2022-08-04T04:32:54.236Z,2.83
2022-08-04T04:38:33.228Z,2.88
2022-08-04T04:44:07.685Z,2.40
2022-08-04T04:49:40.969Z,2.83
2022-08-04T04:55:02.482Z,2.97
2022-08-04T05:00:13.352Z,2.92
2022-08-04T05:05:40.037Z,2.70
2022-08-04T05:10:51.891Z,2.90
2022-08-04T05:16:24.829Z,3.00
2022-08-04T05:21:39.776Z,2.90
2022-08-04T05:26:50.250Z,2.53
2022-08-04T05:31:56.308Z,2.70
2022-08-04T05:37:16.386Z,2.00
2022-08-04T05:47:28.171Z,2.00
2022-08-04T05:52:32.550Z,2.00
2022-08-04T05:57:38.854Z,1.88
2022-08-04T06:02:44.930Z,1.90
2022-08-04T06:08:11.796Z,1.90
2022-08-04T06:13:48.608Z,1.60
2022-08-04T06:20:03.633Z,1.60
2022-08-04T06:24:07.376Z,1.80
2022-08-04T06:29:20.640Z,1.50
2022-08-04T06:34:24.294Z,1.58
2022-08-04T06:39:29.417Z,1.42
2022-08-04T06:44:34.441Z,1.90
2022-08-04T06:49:44.111Z,1.55
2022-08-04T06:55:07.229Z,1.83
2022-08-04T07:00:14.462Z,1.58
2022-08-04T07:05:20.063Z,1.70
2022-08-04T07:10:24.845Z,2.03
2022-08-04T07:15:28.409Z,1.70
2022-08-04T07:20:36.214Z,1.50
2022-08-04T07:26:00.793Z,1.60
2022-08-04T07:31:05.346Z,1.63
2022-08-04T07:36:11.477Z,1.70
2022-08-04T07:41:38.747Z,1.75
2022-08-04T07:46:43.182Z,1.95
2022-08-04T07:51:46.605Z,1.88
2022-08-04T07:56:51.793Z,1.52
2022-08-04T08:01:59.068Z,1.90
2022-08-04T08:07:02.047Z,1.80
2022-08-04T08:12:37.424Z,1.88
2022-08-04T08:17:30.104Z,1.60
2022-08-04T08:22:33.200Z,1.83
2022-08-04T08:27:38.206Z,1.75
2022-08-04T08:32:41.285Z,1.60
2022-08-04T08:37:58.559Z,1.50
2022-08-04T08:44:06.441Z,1.38
2022-08-04T08:50:01.582Z,1.10
2022-08-04T08:55:21.437Z,1.15
2022-08-04T09:00:55.167Z,1.30
2022-08-04T09:06:29.507Z,1.38
2022-08-04T09:12:10.054Z,1.17
2022-08-04T09:17:55.490Z,1.30
2022-08-04T09:23:19.456Z,1.40
2022-08-04T09:28:52.794Z,1.50
2022-08-04T09:34:27.346Z,1.45
2022-08-04T09:39:52.165Z,1.48
2022-08-04T09:45:26.603Z,1.65
2022-08-04T09:50:50.260Z,1.50
2022-08-04T09:56:32.455Z,1.52
2022-08-04T10:01:38.594Z,1.40
2022-08-04T10:07:12.334Z,1.60
2022-08-04T10:12:24.235Z,1.55
2022-08-04T10:17:55.071Z,1.33
2022-08-04T10:23:19.390Z,1.70
2022-08-04T10:28:23.471Z,1.40
2022-08-04T10:33:49.536Z,1.42
2022-08-04T10:39:43.519Z,1.60
2022-08-04T10:45:19.294Z,1.70
2022-08-04T10:50:26.689Z,1.50
2022-08-04T10:56:06.724Z,1.70
2022-08-04T11:02:01.438Z,1.85
2022-08-04T11:06:54.127Z,1.40
2022-08-04T11:12:23.656Z,1.55
2022-08-04T11:17:35.482Z,1.80
2022-08-04T11:22:50.332Z,1.83
2022-08-04T11:28:11.378Z,1.92
2022-08-04T11:33:54.548Z,1.75
2022-08-04T11:39:08.066Z,1.45
2022-08-04T11:44:23.186Z,1.70
2022-08-04T11:49:56.781Z,1.92
2022-08-04T11:55:07.367Z,2.00
2022-08-04T12:00:14.600Z,1.73
2022-08-04T12:05:36.693Z,2.10
2022-08-04T12:11:09.081Z,1.80
2022-08-04T12:16:30.790Z,2.08
2022-08-04T12:21:53.233Z,1.90
2022-08-04T12:27:20.388Z,1.98
2022-08-04T12:33:18.052Z,1.75
2022-08-04T12:38:23.627Z,1.55
2022-08-04T12:43:39.492Z,2.00
2022-08-04T12:48:47.161Z,1.80
2022-08-04T12:59:12.994Z,1.77
2022-08-04T13:04:20.199Z,1.80
2022-08-04T13:09:26.701Z,1.77
2022-08-04T13:14:37.762Z,1.73
2022-08-04T13:19:56.344Z,1.65
2022-08-04T13:26:41.390Z,1.80
2022-08-04T13:30:25.835Z,1.73
2022-08-04T13:35:54.732Z,1.75
2022-08-04T13:40:57.875Z,1.90
2022-08-04T13:46:06.464Z,1.70
2022-08-04T13:51:12.342Z,1.70
2022-08-04T13:56:16.893Z,1.90
2022-08-04T14:01:35.993Z,1.98
2022-08-04T14:07:06.905Z,1.70
2022-08-04T14:12:38.823Z,1.55
2022-08-04T14:17:47.139Z,1.65
2022-08-04T14:22:49.965Z,1.73
2022-08-04T14:27:57.540Z,1.73
2022-08-04T14:34:02.084Z,2.15
2022-08-04T14:38:42.454Z,1.90
2022-08-04T14:44:03.734Z,1.80
2022-08-04T14:49:13.118Z,1.70
2022-08-04T14:54:18.855Z,1.83
2022-08-04T14:59:22.486Z,1.65
2022-08-04T15:04:26.251Z,1.77
2022-08-04T15:09:29.742Z,1.88
2022-08-04T15:14:37.482Z,1.80
2022-08-04T15:19:41.302Z,1.95
2022-08-04T15:24:58.908Z,1.70
2022-08-04T15:30:08.691Z,1.90
2022-08-04T15:35:22.135Z,1.88
2022-08-04T15:40:55.983Z,1.73
2022-08-04T15:46:43.869Z,1.95
2022-08-04T15:51:32.118Z,1.70
2022-08-04T15:56:35.858Z,1.75
2022-08-04T16:01:38.769Z,1.98
2022-08-04T16:06:43.663Z,1.88
2022-08-04T16:11:46.615Z,1.75
2022-08-04T16:16:50.375Z,1.77
2022-08-04T16:21:57.692Z,1.85
2022-08-04T16:27:06.471Z,2.20
2022-08-04T16:32:25.342Z,1.85
2022-08-04T16:37:40.690Z,1.60
2022-08-04T16:42:45.119Z,1.85
2022-08-04T16:47:47.835Z,1.90
2022-08-04T16:52:55.723Z,1.73
2022-08-04T17:03:10.323Z,1.90
2022-08-04T17:08:30.558Z,2.00
2022-08-04T17:14:04.337Z,2.03
2022-08-04T17:19:25.051Z,2.05
2022-08-04T17:24:29.554Z,2.00
2022-08-04T17:29:43.109Z,2.17
2022-08-04T17:34:55.042Z,2.33
2022-08-04T17:40:22.448Z,2.17
2022-08-04T17:50:51.113Z,3.70
2022-08-04T17:55:56.943Z,4.75
2022-08-04T18:01:22.995Z,3.33
2022-08-04T18:06:25.540Z,3.00
2022-08-04T18:11:41.903Z,2.95
2022-08-04T18:16:45.692Z,2.80
2022-08-04T18:21:59.492Z,2.30
2022-08-04T18:27:06.573Z,2.35
2022-08-04T18:32:10.500Z,2.22
2022-08-04T18:38:03.313Z,2.42
2022-08-04T18:42:38.602Z,2.40
2022-08-04T18:47:54.368Z,2.63
2022-08-04T18:53:01.694Z,2.10
2022-08-04T18:58:11.654Z,2.63
2022-08-04T19:03:22.018Z,2.65
2022-08-04T19:08:33.194Z,2.90
2022-08-04T19:13:38.134Z,3.00
2022-08-04T19:18:41.266Z,2.60
2022-08-04T19:24:11.074Z,2.90
2022-08-04T19:29:08.451Z,2.63
2022-08-04T19:34:11.583Z,2.45
2022-08-04T19:39:14.575Z,2.38
2022-08-04T19:44:19.084Z,2.22
2022-08-04T19:50:04.462Z,2.40
2022-08-04T19:54:49.381Z,3.42
2022-08-04T19:59:54.875Z,2.80
2022-08-04T20:04:58.211Z,2.47
2022-08-04T20:10:04.425Z,2.55
2022-08-04T20:15:08.458Z,2.10
2022-08-04T20:20:15.387Z,2.30
2022-08-04T20:25:37.602Z,2.45
2022-08-04T20:30:42.497Z,1.92
2022-08-04T20:36:00.731Z,2.40
2022-08-04T20:41:08.403Z,2.30
2022-08-04T20:46:18.698Z,2.20
2022-08-04T20:51:33.343Z,2.50
2022-08-04T20:56:50.499Z,2.20
2022-08-04T21:01:54.245Z,2.13
2022-08-04T21:07:08.335Z,2.00
2022-08-04T21:12:27.604Z,2.40
2022-08-04T21:17:56.956Z,2.47
2022-08-04T21:22:59.943Z,2.20
2022-08-04T21:28:05.227Z,3.70
2022-08-04T21:33:08.268Z,2.85
2022-08-04T21:38:16.204Z,2.28
2022-08-04T21:43:19.829Z,2.60
2022-08-04T21:48:27.485Z,2.38
2022-08-04T21:53:30.604Z,2.13
2022-08-04T21:58:33.343Z,2.30
2022-08-04T22:03:52.968Z,2.10
2022-08-04T22:09:00.137Z,2.22
2022-08-04T22:14:11.065Z,2.58
2022-08-04T22:19:14.200Z,2.30
2022-08-04T22:24:26.112Z,2.40
2022-08-04T22:29:32.843Z,2.25
2022-08-04T22:34:39.415Z,2.10
2022-08-04T22:39:56.121Z,2.33
2022-08-04T22:44:59.400Z,2.10
2022-08-04T22:50:26.992Z,2.60
2022-08-04T22:55:27.036Z,2.15
2022-08-04T23:00:53.043Z,2.30
2022-08-04T23:06:11.089Z,2.05
2022-08-04T23:11:14.998Z,2.10
2022-08-04T23:16:19.149Z,2.20
2022-08-04T23:21:24.708Z,2.05
2022-08-04T23:26:28.454Z,2.30
2022-08-04T23:31:41.137Z,2.15
2022-08-04T23:36:44.569Z,2.30
2022-08-04T23:41:53.386Z,1.92
2022-08-04T23:47:03.813Z,2.35
2022-08-04T23:52:07.457Z,2.05
2022-08-04T23:57:19.864Z,2.15
